Time,TemperatureF,DewpointF,PressureIn,WindDirection,WindDirectionDegrees,WindSpeedMPH,WindSpeedGustMPH,Humidity,HourlyPrecipIn,Conditions,Clouds,dailyrainin,SoftwareType,DateUTC
2013-06-13 00:00:00,79.3,66.3,29.18,SSE,158,3.7,8.5,65,0.00,,,0.00,WSDL version 426,2013-06-13 05:00:00,
2013-06-13 00:05:00,79.5,66.6,29.18,South,180,4.5,8.5,64,0.00,,,0.00,WSDL version 426,2013-06-13 05:05:00,
2013-06-13 00:10:00,79.3,66.1,29.18,South,177,4.0,8.1,64,0.00,,,0.00,WSDL version 426,2013-06-13 05:10:00,
2013-06-13 00:15:00,79.2,65.9,29.18,SSE,163,5.0,8.7,64,0.00,,,0.00,WSDL version 426,2013-06-13 05:15:00,
2013-06-13 00:20:00,79.5,66.3,29.18,SSE,165,3.3,8.7,64,0.00,,,0.00,WSDL version 426,2013-06-13 05:20:00,
2013-06-13 00:25:00,79.6,66.0,29.18,SSE,165,3.9,7.4,63,0.00,,,0.00,WSDL version 426,2013-06-13 05:25:00,
2013-06-13 00:30:00,79.5,65.8,29.18,SSE,160,4.0,7.4,63,0.00,,,0.00,WSDL version 426,2013-06-13 05:30:00,
2013-06-13 00:35:00,79.6,65.9,29.18,SSE,158,3.7,6.5,63,0.00,,,0.00,WSDL version 426,2013-06-13 05:35:00,
2013-06-13 00:40:00,79.8,65.7,29.18,SE,138,3.9,6.5,62,0.00,,,0.00,WSDL version 426,2013-06-13 05:40:00,
2013-06-13 00:45:00,79.6,65.4,29.18,SSE,160,3.4,6.3,62,0.00,,,0.00,WSDL version 426,2013-06-13 05:45:00,
2013-06-13 00:50:00,79.3,65.2,29.18,SE,145,5.0,7.2,62,0.00,,,0.00,WSDL version 426,2013-06-13 05:50:00,
2013-06-13 00:55:00,79.2,65.2,29.18,SE,146,3.6,7.2,63,0.00,,,0.00,WSDL version 426,2013-06-13 05:55:00,
2013-06-13 01:00:00,79.7,65.7,29.18,SSE,149,3.4,6.0,62,0.00,,,0.00,WSDL version 426,2013-06-13 06:00:00,
2013-06-13 01:05:00,79.4,65.3,29.18,SSE,160,3.6,6.5,62,0.00,,,0.00,WSDL version 426,2013-06-13 06:05:00,
2013-06-13 01:10:00,79.2,65.1,29.18,SSE,166,4.9,8.1,63,0.00,,,0.00,WSDL version 426,2013-06-13 06:10:00,
2013-06-13 01:15:00,79.2,65.4,29.18,South,178,4.0,8.1,63,0.00,,,0.00,WSDL version 426,2013-06-13 06:15:00,
2013-06-13 01:20:00,79.5,65.6,29.18,South,169,3.6,7.2,62,0.00,,,0.00,WSDL version 426,2013-06-13 06:20:00,
2013-06-13 01:25:00,79.3,65.3,29.18,South,170,3.6,7.2,62,0.00,,,0.00,WSDL version 426,2013-06-13 06:25:00,
2013-06-13 01:30:00,79.2,65.2,29.18,SSE,155,3.4,6.3,63,0.00,,,0.00,WSDL version 426,2013-06-13 06:30:00,
2013-06-13 01:35:00,79.0,65.2,29.18,South,188,4.9,6.5,63,0.00,,,0.00,WSDL version 426,2013-06-13 06:35:00,
2013-06-13 01:40:00,79.2,65.0,29.18,SSW,195,4.2,8.1,62,0.00,,,0.00,WSDL version 426,2013-06-13 06:40:00,
2013-06-13 01:45:00,79.4,65.1,29.18,South,186,3.4,8.1,61,0.00,,,0.00,WSDL version 426,2013-06-13 06:45:00,
2013-06-13 01:50:00,79.4,64.8,29.18,SSE,158,3.2,6.0,61,0.00,,,0.00,WSDL version 426,2013-06-13 06:50:00,
2013-06-13 01:55:00,79.3,64.7,29.18,South,170,3.0,6.0,61,0.00,,,0.00,WSDL version 426,2013-06-13 06:55:00,
2013-06-13 02:00:00,79.3,64.7,29.18,South,173,2.9,6.3,60,0.00,,,0.00,WSDL version 426,2013-06-13 07:00:00,
2013-06-13 02:05:00,79.3,64.3,29.18,South,169,3.0,10.1,60,0.00,,,0.00,WSDL version 426,2013-06-13 07:05:00,
2013-06-13 02:10:00,79.6,64.5,29.18,South,174,3.7,10.1,60,0.00,,,0.00,WSDL version 426,2013-06-13 07:10:00,
2013-06-13 02:15:00,79.9,64.4,29.18,SSW,203,3.7,6.5,59,0.00,,,0.00,WSDL version 426,2013-06-13 07:15:00,
2013-06-13 02:20:00,79.7,64.1,29.18,South,183,3.5,6.5,59,0.00,,,0.00,WSDL version 426,2013-06-13 07:20:00,
2013-06-13 02:25:00,79.4,63.9,29.18,South,178,2.8,5.4,60,0.00,,,0.00,WSDL version 426,2013-06-13 07:25:00,
2013-06-13 02:30:00,79.3,64.1,29.18,South,188,2.5,4.0,60,0.00,,,0.00,WSDL version 426,2013-06-13 07:30:00,
2013-06-13 02:35:00,79.1,63.8,29.21,South,173,2.4,4.7,60,0.00,,,0.00,WSDL version 426,2013-06-13 07:35:00,
2013-06-13 02:40:00,79.2,64.3,29.21,SSE,168,2.4,4.7,60,0.00,,,0.00,WSDL version 426,2013-06-13 07:40:00,
2013-06-13 02:45:00,79.2,64.1,29.21,ESE,113,1.7,3.6,60,0.00,,,0.00,WSDL version 426,2013-06-13 07:45:00,
2013-06-13 02:50:00,78.5,63.7,29.18,SE,127,2.3,3.4,61,0.00,,,0.00,WSDL version 426,2013-06-13 07:50:00,
2013-06-13 02:55:00,78.0,63.5,29.18,ESE,113,1.7,2.9,61,0.00,,,0.00,WSDL version 426,2013-06-13 07:55:00,
2013-06-13 03:00:00,77.6,63.5,29.18,ESE,113,1.0,2.9,62,0.00,,,0.00,WSDL version 426,2013-06-13 08:00:00,
2013-06-13 03:07:00,77.2,63.7,29.18,South,174,1.0,2.2,65,0.00,,,0.00,WSDL version 426,2013-06-13 08:07:00,
2013-06-13 03:13:00,78.0,65.0,29.18,ESE,118,1.3,2.7,64,0.00,,,0.00,WSDL version 426,2013-06-13 08:13:00,
2013-06-13 03:18:00,77.6,64.0,29.18,SE,135,2.1,2.9,63,0.00,,,0.00,WSDL version 426,2013-06-13 08:18:00,
2013-06-13 03:23:00,77.1,63.9,29.18,ESE,119,1.6,2.9,64,0.00,,,0.00,WSDL version 426,2013-06-13 08:23:00,
2013-06-13 03:30:00,76.5,63.8,29.18,ESE,113,1.1,1.6,65,0.00,,,0.00,WSDL version 426,2013-06-13 08:30:00,
2013-06-13 03:35:00,76.4,63.9,29.21,ESE,122,1.1,2.0,66,0.00,,,0.00,WSDL version 426,2013-06-13 08:35:00,
2013-06-13 03:40:00,77.0,65.2,29.21,SE,125,1.5,4.9,66,0.00,,,0.00,WSDL version 426,2013-06-13 08:40:00,
2013-06-13 03:45:00,77.2,64.7,29.21,ESE,113,1.2,4.9,65,0.00,,,0.00,WSDL version 426,2013-06-13 08:45:00,
2013-06-13 03:50:00,76.6,64.0,29.18,ESE,113,0.8,2.0,65,0.00,,,0.00,WSDL version 426,2013-06-13 08:50:00,
2013-06-13 03:55:00,76.2,64.0,29.18,South,178,2.4,5.6,66,0.00,,,0.00,WSDL version 426,2013-06-13 08:55:00,
2013-06-13 04:00:00,76.1,63.9,29.18,SSE,158,1.0,5.6,66,0.00,,,0.00,WSDL version 426,2013-06-13 09:00:00,
2013-06-13 04:05:00,75.9,63.8,29.18,SW,223,0.9,2.7,66,0.00,,,0.00,WSDL version 426,2013-06-13 09:05:00,
2013-06-13 04:10:00,76.6,64.9,29.18,South,174,1.3,2.9,67,0.00,,,0.00,WSDL version 426,2013-06-13 09:10:00,
2013-06-13 04:15:00,77.0,64.4,29.18,SSE,163,1.3,3.8,65,0.00,,,0.00,WSDL version 426,2013-06-13 09:15:00,
2013-06-13 04:20:00,76.6,63.9,29.21,North,5,3.1,4.3,65,0.00,,,0.00,WSDL version 426,2013-06-13 09:20:00,
2013-06-13 04:25:00,76.3,63.9,29.21,North,3,4.6,5.8,66,0.00,,,0.00,WSDL version 426,2013-06-13 09:25:00,
2013-06-13 04:30:00,76.2,63.7,29.21,NE,50,1.9,5.8,65,0.00,,,0.00,WSDL version 426,2013-06-13 09:30:00,
2013-06-13 04:35:00,76.0,64.1,29.21,WSW,253,1.8,4.9,67,0.00,,,0.00,WSDL version 426,2013-06-13 09:35:00,
2013-06-13 04:40:00,76.7,64.9,29.21,NNW,340,2.8,4.3,66,0.00,,,0.00,WSDL version 426,2013-06-13 09:40:00,
2013-06-13 04:45:00,77.2,64.7,29.21,NW,323,2.2,4.3,65,0.00,,,0.00,WSDL version 426,2013-06-13 09:45:00,
2013-06-13 04:50:00,76.7,64.1,29.21,NNE,15,1.6,2.7,65,0.00,,,0.00,WSDL version 426,2013-06-13 09:50:00,
2013-06-13 04:55:00,76.2,63.6,29.21,NNE,13,1.8,2.7,65,0.00,,,0.00,WSDL version 426,2013-06-13 09:55:00,
2013-06-13 05:00:00,75.8,63.2,29.21,North,354,2.3,4.0,65,0.00,,,0.00,WSDL version 426,2013-06-13 10:00:00,
2013-06-13 05:05:00,75.6,63.5,29.21,NNE,13,2.8,4.0,66,0.00,,,0.00,WSDL version 426,2013-06-13 10:05:00,
2013-06-13 05:10:00,75.5,63.7,29.21,NNE,20,2.9,4.0,68,0.00,,,0.00,WSDL version 426,2013-06-13 10:10:00,
2013-06-13 05:15:00,76.0,64.8,29.21,NE,38,2.5,3.8,68,0.00,,,0.00,WSDL version 426,2013-06-13 10:15:00,
2013-06-13 05:20:00,75.8,64.2,29.23,NE,45,0.7,3.1,67,0.00,,,0.00,WSDL version 426,2013-06-13 10:20:00,
2013-06-13 05:26:00,75.3,63.6,29.23,NE,45,1.2,2.9,67,0.00,,,0.00,WSDL version 426,2013-06-13 10:26:00,
2013-06-13 05:31:00,75.1,63.7,29.23,NE,45,0.3,2.9,68,0.00,,,0.00,WSDL version 426,2013-06-13 10:31:00,
2013-06-13 05:36:00,74.7,63.6,29.23,NE,45,0.0,1.6,69,0.00,,,0.00,WSDL version 426,2013-06-13 10:36:00,
2013-06-13 05:41:00,74.3,63.5,29.23,NE,45,0.4,1.6,69,0.00,,,0.00,WSDL version 426,2013-06-13 10:41:00,
2013-06-13 05:46:00,74.3,63.4,29.23,NE,45,1.9,2.9,69,0.00,,,0.00,WSDL version 426,2013-06-13 10:46:00,
2013-06-13 05:51:00,74.1,63.6,29.23,NE,45,1.9,2.9,70,0.00,,,0.00,WSDL version 426,2013-06-13 10:51:00,
2013-06-13 05:56:00,74.1,63.8,29.23,NE,45,0.1,2.7,70,0.00,,,0.00,WSDL version 426,2013-06-13 10:56:00,
2013-06-13 06:01:00,74.0,63.9,29.23,NE,45,0.0,1.3,71,0.00,,,0.00,WSDL version 426,2013-06-13 11:01:00,
2013-06-13 06:06:00,73.9,64.0,29.23,NE,45,1.3,2.0,71,0.00,,,0.00,WSDL version 426,2013-06-13 11:06:00,
2013-06-13 06:11:00,73.6,63.7,29.23,NE,45,0.0,2.0,72,0.00,,,0.00,WSDL version 426,2013-06-13 11:11:00,
2013-06-13 06:16:00,73.1,64.2,29.23,ESE,122,1.1,1.6,74,0.00,,,0.00,WSDL version 426,2013-06-13 11:16:00,
2013-06-13 06:21:00,73.0,64.4,29.23,SE,135,0.6,2.5,75,0.00,,,0.00,WSDL version 426,2013-06-13 11:21:00,
2013-06-13 06:26:00,72.9,64.5,29.23,SSW,203,1.7,2.7,76,0.00,,,0.00,WSDL version 426,2013-06-13 11:26:00,
2013-06-13 06:31:00,72.7,64.7,29.23,South,180,1.0,2.7,76,0.00,,,0.00,WSDL version 426,2013-06-13 11:31:00,
2013-06-13 06:36:00,72.7,65.0,29.26,South,175,1.9,2.9,77,0.00,,,0.00,WSDL version 426,2013-06-13 11:36:00,
2013-06-13 06:41:00,72.9,65.2,29.26,South,177,1.8,2.9,77,0.00,,,0.00,WSDL version 426,2013-06-13 11:41:00,
2013-06-13 06:46:00,73.0,65.9,29.26,SSE,158,2.4,3.1,79,0.00,,,0.00,WSDL version 426,2013-06-13 11:46:00,
2013-06-13 06:51:00,73.2,66.1,29.26,SSE,158,0.0,3.1,78,0.00,,,0.00,WSDL version 426,2013-06-13 11:51:00,
2013-06-13 06:56:00,73.5,66.2,29.26,SSE,168,1.7,2.5,78,0.00,,,0.00,WSDL version 426,2013-06-13 11:56:00,
2013-06-13 07:01:00,73.7,66.4,29.26,SSW,193,2.0,2.7,78,0.00,,,0.00,WSDL version 426,2013-06-13 12:01:00,
2013-06-13 07:06:00,73.8,66.5,29.26,SSW,193,2.7,3.6,78,0.00,,,0.00,WSDL version 426,2013-06-13 12:06:00,
2013-06-13 07:11:00,74.2,66.8,29.26,SSW,203,1.1,3.6,77,0.00,,,0.00,WSDL version 426,2013-06-13 12:11:00,
2013-06-13 07:16:00,74.6,67.3,29.26,NNW,332,5.6,7.2,79,0.00,,,0.00,WSDL version 426,2013-06-13 12:16:00,
2013-06-13 07:21:00,75.2,67.8,29.26,North,353,2.3,7.2,77,0.00,,,0.00,WSDL version 426,2013-06-13 12:21:00,
2013-06-13 07:26:00,75.7,67.7,29.26,NNW,348,2.3,4.7,76,0.00,,,0.00,WSDL version 426,2013-06-13 12:26:00,
2013-06-13 07:31:00,76.2,68.0,29.26,North,360,2.8,4.7,75,0.00,,,0.00,WSDL version 426,2013-06-13 12:31:00,
2013-06-13 07:36:00,76.7,68.0,29.26,North,358,3.2,4.7,74,0.00,,,0.00,WSDL version 426,2013-06-13 12:36:00,
2013-06-13 07:41:00,77.2,67.6,29.26,North,3,3.0,4.7,72,0.00,,,0.00,WSDL version 426,2013-06-13 12:41:00,
2013-06-13 07:46:00,77.5,67.2,29.26,North,3,3.6,5.6,70,0.00,,,0.00,WSDL version 426,2013-06-13 12:46:00,
2013-06-13 07:51:00,77.7,66.8,29.26,North,8,3.7,5.6,69,0.00,,,0.00,WSDL version 426,2013-06-13 12:51:00,
2013-06-13 07:56:00,77.9,66.5,29.26,North,358,3.8,7.4,68,0.00,,,0.00,WSDL version 426,2013-06-13 12:56:00,
2013-06-13 08:01:00,77.9,65.4,29.26,North,6,4.2,7.4,65,0.00,,,0.00,WSDL version 426,2013-06-13 13:01:00,
2013-06-13 08:06:00,78.1,65.3,29.26,NNW,340,4.2,6.5,64,0.00,,,0.00,WSDL version 426,2013-06-13 13:06:00,
2013-06-13 08:11:00,78.0,64.3,29.26,NNW,338,6.1,8.1,62,0.00,,,0.00,WSDL version 426,2013-06-13 13:11:00,
2013-06-13 08:16:00,77.9,63.8,29.26,North,3,3.7,8.1,62,0.00,,,0.00,WSDL version 426,2013-06-13 13:16:00,
2013-06-13 08:21:00,77.9,63.8,29.26,North,360,3.7,7.4,62,0.00,,,0.00,WSDL version 426,2013-06-13 13:21:00,
2013-06-13 08:26:00,78.0,64.0,29.26,NNE,18,4.3,6.0,62,0.00,,,0.00,WSDL version 426,2013-06-13 13:26:00,
2013-06-13 08:31:00,78.1,64.0,29.26,North,6,4.9,6.5,62,0.00,,,0.00,WSDL version 426,2013-06-13 13:31:00,
2013-06-13 08:36:00,78.3,63.8,29.26,North,3,3.8,6.5,61,0.00,,,0.00,WSDL version 426,2013-06-13 13:36:00,
2013-06-13 08:41:00,78.3,63.7,29.26,NNW,345,3.9,6.0,60,0.00,,,0.00,WSDL version 426,2013-06-13 13:41:00,
2013-06-13 08:46:00,78.6,63.6,29.26,North,350,4.9,6.5,60,0.00,,,0.00,WSDL version 426,2013-06-13 13:46:00,
2013-06-13 08:51:00,78.9,63.5,29.26,NNW,343,4.1,7.8,59,0.00,,,0.00,WSDL version 426,2013-06-13 13:51:00,
2013-06-13 08:56:00,79.2,63.7,29.26,North,352,3.6,7.8,59,0.00,,,0.00,WSDL version 426,2013-06-13 13:56:00,
2013-06-13 09:01:00,79.6,63.4,29.26,NNW,338,5.8,7.8,57,0.00,,,0.00,WSDL version 426,2013-06-13 14:01:00,
2013-06-13 09:06:00,79.8,63.5,29.26,NNW,343,4.4,7.8,57,0.00,,,0.00,WSDL version 426,2013-06-13 14:06:00,
2013-06-13 09:11:00,80.1,63.2,29.26,North,6,4.3,7.6,56,0.00,,,0.00,WSDL version 426,2013-06-13 14:11:00,
2013-06-13 09:16:00,80.2,63.2,29.26,North,353,4.7,6.5,56,0.00,,,0.00,WSDL version 426,2013-06-13 14:16:00,
2013-06-13 09:21:00,80.2,63.3,29.26,North,360,3.6,6.3,57,0.00,,,0.00,WSDL version 426,2013-06-13 14:21:00,
2013-06-13 09:26:00,80.3,63.3,29.26,North,6,3.2,4.9,56,0.00,,,0.00,WSDL version 426,2013-06-13 14:26:00,
2013-06-13 09:31:00,80.4,63.4,29.26,NE,34,2.6,4.9,57,0.00,,,0.00,WSDL version 426,2013-06-13 14:31:00,
2013-06-13 09:36:00,80.9,63.7,29.26,NNE,29,3.3,4.9,55,0.00,,,0.00,WSDL version 426,2013-06-13 14:36:00,
2013-06-13 09:41:00,81.3,63.5,29.26,NNW,343,3.8,5.6,54,0.00,,,0.00,WSDL version 426,2013-06-13 14:41:00,
2013-06-13 09:46:00,81.6,63.4,29.26,North,10,4.1,6.5,54,0.00,,,0.00,WSDL version 426,2013-06-13 14:46:00,
2013-06-13 09:51:00,82.5,64.1,29.29,NNE,28,4.2,6.5,53,0.00,,,0.00,WSDL version 426,2013-06-13 14:51:00,
2013-06-13 09:56:00,83.2,63.9,29.29,NE,48,4.8,7.2,52,0.00,,,0.00,WSDL version 426,2013-06-13 14:56:00,
2013-06-13 10:01:00,83.6,63.9,29.29,NNE,20,4.2,7.2,51,0.00,,,0.00,WSDL version 426,2013-06-13 15:01:00,
2013-06-13 10:06:00,83.8,63.2,29.29,NE,38,3.7,6.3,51,0.00,,,0.00,WSDL version 426,2013-06-13 15:06:00,
2013-06-13 10:11:00,84.2,63.2,29.29,North,4,3.5,6.5,48,0.00,,,0.00,WSDL version 426,2013-06-13 15:11:00,
2013-06-13 10:16:00,84.4,62.9,29.29,North,360,5.2,8.1,48,0.00,,,0.00,WSDL version 426,2013-06-13 15:16:00,
2013-06-13 10:21:00,84.7,62.4,29.29,NNE,31,4.1,8.1,48,0.00,,,0.00,WSDL version 426,2013-06-13 15:21:00,
2013-06-13 10:26:00,85.2,63.2,29.29,NNE,30,3.4,6.5,48,0.00,,,0.00,WSDL version 426,2013-06-13 15:26:00,
2013-06-13 10:31:00,85.1,62.2,29.29,NNE,13,5.4,7.8,47,0.00,,,0.00,WSDL version 426,2013-06-13 15:31:00,
2013-06-13 10:36:00,85.1,61.9,29.29,NNE,13,5.2,7.8,46,0.00,,,0.00,WSDL version 426,2013-06-13 15:36:00,
2013-06-13 10:41:00,85.2,62.0,29.29,North,355,4.3,7.6,46,0.00,,,0.00,WSDL version 426,2013-06-13 15:41:00,
2013-06-13 10:46:00,85.7,62.1,29.29,North,357,3.8,6.5,45,0.00,,,0.00,WSDL version 426,2013-06-13 15:46:00,
2013-06-13 10:51:00,86.8,61.9,29.29,North,353,4.1,7.6,44,0.00,,,0.00,WSDL version 426,2013-06-13 15:51:00,
2013-06-13 10:56:00,86.6,61.2,29.29,North,352,4.2,7.6,42,0.00,,,0.00,WSDL version 426,2013-06-13 15:56:00,
2013-06-13 11:01:00,86.5,61.5,29.29,NE,40,3.0,6.0,44,0.00,,,0.00,WSDL version 426,2013-06-13 16:01:00,
2013-06-13 11:06:00,87.0,62.8,29.29,NNE,28,3.4,6.0,45,0.00,,,0.00,WSDL version 426,2013-06-13 16:06:00,
2013-06-13 11:11:00,87.3,62.2,29.29,NNE,17,3.6,6.0,43,0.00,,,0.00,WSDL version 426,2013-06-13 16:11:00,
2013-06-13 11:16:00,87.5,61.5,29.29,North,349,4.8,7.4,41,0.00,,,0.00,WSDL version 426,2013-06-13 16:16:00,
2013-06-13 11:21:00,88.0,61.1,29.29,North,3,5.6,8.7,41,0.00,,,0.00,WSDL version 426,2013-06-13 16:21:00,
2013-06-13 11:26:00,87.9,60.8,29.29,NNW,335,4.8,8.7,40,0.00,,,0.00,WSDL version 426,2013-06-13 16:26:00,
2013-06-13 11:31:00,87.8,61.2,29.29,NE,39,3.2,7.8,42,0.00,,,0.00,WSDL version 426,2013-06-13 16:31:00,
2013-06-13 11:36:00,88.5,61.8,29.29,NNE,23,4.6,6.5,40,0.00,,,0.00,WSDL version 426,2013-06-13 16:36:00,
2013-06-13 11:41:00,88.9,61.6,29.29,NE,53,4.5,6.5,40,0.00,,,0.00,WSDL version 426,2013-06-13 16:41:00,
2013-06-13 11:46:00,89.6,62.0,29.29,NE,42,2.6,6.5,39,0.00,,,0.00,WSDL version 426,2013-06-13 16:46:00,
2013-06-13 11:51:00,89.1,60.8,29.29,NNW,345,4.6,6.5,39,0.00,,,0.00,WSDL version 426,2013-06-13 16:51:00,
2013-06-13 11:56:00,89.1,60.9,29.29,NNW,343,5.0,6.5,39,0.00,,,0.00,WSDL version 426,2013-06-13 16:56:00,
2013-06-13 12:01:00,89.5,60.9,29.29,NNW,343,3.1,6.5,38,0.00,,,0.00,WSDL version 426,2013-06-13 17:01:00,
2013-06-13 12:06:00,89.9,60.9,29.29,NNW,343,4.8,6.7,38,0.00,,,0.00,WSDL version 426,2013-06-13 17:06:00,
2013-06-13 12:11:00,90.1,61.5,29.29,ENE,75,2.9,6.7,40,0.00,,,0.00,WSDL version 426,2013-06-13 17:11:00,
2013-06-13 12:16:00,90.6,62.1,29.29,ENE,78,3.2,6.0,38,0.00,,,0.00,WSDL version 426,2013-06-13 17:16:00,
2013-06-13 12:21:00,90.8,61.5,29.29,NNW,340,4.5,7.8,38,0.00,,,0.00,WSDL version 426,2013-06-13 17:21:00,
2013-06-13 12:27:00,91.0,61.7,29.29,North,350,2.0,7.8,38,0.00,,,0.00,WSDL version 426,2013-06-13 17:27:00,
2013-06-13 12:32:00,90.8,61.5,29.29,North,10,4.0,6.5,38,0.00,,,0.00,WSDL version 426,2013-06-13 17:32:00,
2013-06-13 12:37:00,91.1,61.8,29.29,NNW,345,2.8,6.5,38,0.00,,,0.00,WSDL version 426,2013-06-13 17:37:00,
2013-06-13 12:42:00,91.4,61.3,29.29,NNE,23,2.7,5.8,37,0.00,,,0.00,WSDL version 426,2013-06-13 17:42:00,
2013-06-13 12:47:00,91.9,62.3,29.29,North,3,3.1,5.8,38,0.00,,,0.00,WSDL version 426,2013-06-13 17:47:00,
2013-06-13 12:53:00,92.2,62.1,29.29,NNE,20,4.6,6.3,37,0.00,,,0.00,WSDL version 426,2013-06-13 17:53:00,
2013-06-13 12:58:00,92.4,62.2,29.29,NNW,334,4.7,7.4,36,0.00,,,0.00,WSDL version 426,2013-06-13 17:58:00,
2013-06-13 13:03:00,92.7,62.2,29.29,NE,41,4.8,7.4,37,0.00,,,0.00,WSDL version 426,2013-06-13 18:03:00,
2013-06-13 13:08:00,93.5,62.4,29.29,North,360,3.4,6.3,36,0.00,,,0.00,WSDL version 426,2013-06-13 18:08:00,
2013-06-13 13:13:00,93.7,62.7,29.29,NNW,347,3.2,6.3,36,0.00,,,0.00,WSDL version 426,2013-06-13 18:13:00,
2013-06-13 13:18:00,93.9,62.7,29.29,NNE,33,3.0,5.4,35,0.00,,,0.00,WSDL version 426,2013-06-13 18:18:00,
2013-06-13 13:23:00,94.2,62.7,29.29,ESE,118,3.3,5.4,36,0.00,,,0.00,WSDL version 426,2013-06-13 18:23:00,
2013-06-13 13:28:00,94.7,62.2,29.29,North,352,5.3,7.8,33,0.00,,,0.00,WSDL version 426,2013-06-13 18:28:00,
2013-06-13 13:33:00,94.6,62.3,29.29,NNE,33,3.6,7.8,35,0.00,,,0.00,WSDL version 426,2013-06-13 18:33:00,
2013-06-13 13:38:00,94.9,62.3,29.26,North,352,4.2,7.4,35,0.00,,,0.00,WSDL version 426,2013-06-13 18:38:00,
2013-06-13 13:43:00,95.0,61.4,29.26,North,350,4.9,7.4,33,0.00,,,0.00,WSDL version 426,2013-06-13 18:43:00,
2013-06-13 13:48:00,94.8,60.9,29.26,West,281,1.8,6.5,33,0.00,,,0.00,WSDL version 426,2013-06-13 18:48:00,
2013-06-13 13:53:00,95.9,62.7,29.26,North,8,4.0,8.5,33,0.00,,,0.00,WSDL version 426,2013-06-13 18:53:00,
2013-06-13 13:58:00,95.9,61.5,29.26,North,357,3.1,8.5,32,0.00,,,0.00,WSDL version 426,2013-06-13 18:58:00,
2013-06-13 14:03:00,95.9,62.1,29.26,NNE,33,4.8,7.4,32,0.00,,,0.00,WSDL version 426,2013-06-13 19:03:00,
2013-06-13 14:08:00,96.3,61.1,29.26,NW,326,3.7,7.4,31,0.00,,,0.00,WSDL version 426,2013-06-13 19:08:00,
2013-06-13 14:13:00,96.3,60.2,29.26,West,276,3.6,6.5,30,0.00,,,0.00,WSDL version 426,2013-06-13 19:13:00,
2013-06-13 14:18:00,96.6,61.3,29.26,North,8,2.5,6.0,31,0.00,,,0.00,WSDL version 426,2013-06-13 19:18:00,
2013-06-13 14:23:00,96.7,61.2,29.26,NW,326,4.6,7.8,31,0.00,,,0.00,WSDL version 426,2013-06-13 19:23:00,
2013-06-13 14:28:00,97.0,60.1,29.26,West,275,4.1,7.8,29,0.00,,,0.00,WSDL version 426,2013-06-13 19:28:00,
2013-06-13 14:33:00,97.1,59.9,29.26,ENE,73,2.3,7.2,30,0.00,,,0.00,WSDL version 426,2013-06-13 19:33:00,
2013-06-13 14:38:00,97.4,60.8,29.26,East,80,2.8,5.4,30,0.00,,,0.00,WSDL version 426,2013-06-13 19:38:00,
2013-06-13 14:43:00,97.7,61.3,29.26,North,6,3.8,6.0,31,0.00,,,0.00,WSDL version 426,2013-06-13 19:43:00,
2013-06-13 14:48:00,97.6,60.7,29.26,NNE,20,4.1,7.4,29,0.00,,,0.00,WSDL version 426,2013-06-13 19:48:00,
2013-06-13 14:53:00,98.1,60.9,29.26,ESE,103,1.0,7.4,30,0.00,,,0.00,WSDL version 426,2013-06-13 19:53:00,
2013-06-13 14:58:00,98.8,60.3,29.26,NNE,33,4.0,7.4,28,0.00,,,0.00,WSDL version 426,2013-06-13 19:58:00,
2013-06-13 15:03:00,98.6,59.9,29.26,ENE,76,3.2,7.4,28,0.00,,,0.00,WSDL version 426,2013-06-13 20:03:00,
2013-06-13 15:08:00,98.6,60.6,29.23,East,93,1.4,5.8,29,0.00,,,0.00,WSDL version 426,2013-06-13 20:08:00,
2013-06-13 15:13:00,98.9,61.4,29.23,North,360,3.1,4.3,29,0.00,,,0.00,WSDL version 426,2013-06-13 20:13:00,
2013-06-13 15:18:00,99.1,59.9,29.23,NNW,340,3.2,8.1,28,0.00,,,0.00,WSDL version 426,2013-06-13 20:18:00,
2013-06-13 15:23:00,99.4,60.4,29.23,NNW,343,3.1,8.1,28,0.00,,,0.00,WSDL version 426,2013-06-13 20:23:00,
2013-06-13 15:28:00,99.7,60.0,29.23,NNW,338,5.0,6.5,27,0.00,,,0.00,WSDL version 426,2013-06-13 20:28:00,
2013-06-13 15:33:00,99.8,59.9,29.23,WNW,295,3.2,6.5,27,0.00,,,0.00,WSDL version 426,2013-06-13 20:33:00,
2013-06-13 15:38:00,99.9,60.0,29.23,SW,218,1.8,5.4,27,0.00,,,0.00,WSDL version 426,2013-06-13 20:38:00,
2013-06-13 15:43:00,100.0,60.0,29.23,North,3,2.5,3.8,27,0.00,,,0.00,WSDL version 426,2013-06-13 20:43:00,
2013-06-13 15:48:00,100.8,60.5,29.23,NNE,33,2.6,4.0,27,0.00,,,0.00,WSDL version 426,2013-06-13 20:48:00,
2013-06-13 15:53:00,101.6,60.6,29.23,North,3,2.3,4.0,26,0.00,,,0.00,WSDL version 426,2013-06-13 20:53:00,
2013-06-13 15:58:00,101.8,60.8,29.23,NNE,29,3.5,5.4,26,0.00,,,0.00,WSDL version 426,2013-06-13 20:58:00,
2013-06-13 16:03:00,101.9,60.6,29.23,NE,48,1.6,5.4,26,0.00,,,0.00,WSDL version 426,2013-06-13 21:03:00,
2013-06-13 16:08:00,102.5,60.7,29.23,North,11,4.1,6.0,25,0.00,,,0.00,WSDL version 426,2013-06-13 21:08:00,
2013-06-13 16:13:00,102.5,60.0,29.23,NNE,23,3.1,6.0,25,0.00,,,0.00,WSDL version 426,2013-06-13 21:13:00,
2013-06-13 16:18:00,102.6,60.0,29.23,NE,55,2.8,4.9,25,0.00,,,0.00,WSDL version 426,2013-06-13 21:18:00,
2013-06-13 16:23:00,102.7,60.2,29.23,NNW,328,2.3,4.9,25,0.00,,,0.00,WSDL version 426,2013-06-13 21:23:00,
2013-06-13 16:28:00,103.2,60.6,29.23,NW,313,3.0,4.9,25,0.00,,,0.00,WSDL version 426,2013-06-13 21:28:00,
2013-06-13 16:33:00,102.8,60.2,29.23,North,350,3.8,5.8,25,0.00,,,0.00,WSDL version 426,2013-06-13 21:33:00,
2013-06-13 16:38:00,103.4,60.8,29.21,SE,130,1.8,5.8,25,0.00,,,0.00,WSDL version 426,2013-06-13 21:38:00,
2013-06-13 16:43:00,103.5,60.2,29.21,NE,53,2.5,5.4,24,0.00,,,0.00,WSDL version 426,2013-06-13 21:43:00,
2013-06-13 16:48:00,103.4,60.1,29.21,East,85,1.4,5.4,25,0.00,,,0.00,WSDL version 426,2013-06-13 21:48:00,
2013-06-13 16:53:00,103.8,59.7,29.21,NNE,23,2.6,4.3,24,0.00,,,0.00,WSDL version 426,2013-06-13 21:53:00,
2013-06-13 16:58:00,104.2,60.2,29.21,SE,127,1.9,4.3,24,0.00,,,0.00,WSDL version 426,2013-06-13 21:58:00,
2013-06-13 17:03:00,104.6,60.6,29.21,SE,127,3.6,5.4,24,0.00,,,0.00,WSDL version 426,2013-06-13 22:03:00,
2013-06-13 17:08:00,104.3,60.3,29.21,SE,141,3.1,5.4,24,0.00,,,0.00,WSDL version 426,2013-06-13 22:08:00,
2013-06-13 17:13:00,104.8,60.5,29.21,NE,35,3.4,4.7,23,0.00,,,0.00,WSDL version 426,2013-06-13 22:13:00,
2013-06-13 17:18:00,104.9,58.4,29.21,NW,323,2.7,4.3,21,0.00,,,0.00,WSDL version 426,2013-06-13 22:18:00,
2013-06-13 17:23:00,105.2,57.6,29.21,North,349,3.2,5.4,22,0.00,,,0.00,WSDL version 426,2013-06-13 22:23:00,
2013-06-13 17:28:00,104.5,58.1,29.21,NNW,335,3.2,5.4,22,0.00,,,0.00,WSDL version 426,2013-06-13 22:28:00,
2013-06-13 17:33:00,104.7,57.8,29.21,NE,38,2.2,4.9,22,0.00,,,0.00,WSDL version 426,2013-06-13 22:33:00,
2013-06-13 17:38:00,105.0,60.3,29.21,ESE,120,3.7,5.6,24,0.00,,,0.00,WSDL version 426,2013-06-13 22:38:00,
2013-06-13 17:43:00,105.0,60.7,29.21,SE,138,3.2,5.6,24,0.00,,,0.00,WSDL version 426,2013-06-13 22:43:00,
2013-06-13 17:48:00,104.8,60.8,29.21,SSE,154,2.8,5.6,24,0.00,,,0.00,WSDL version 426,2013-06-13 22:48:00,
2013-06-13 17:53:00,104.3,60.3,29.21,East,93,3.4,4.5,24,0.00,,,0.00,WSDL version 426,2013-06-13 22:53:00,
2013-06-13 17:58:00,104.7,60.7,29.21,ESE,121,2.8,4.5,24,0.00,,,0.00,WSDL version 426,2013-06-13 22:58:00,
2013-06-13 18:03:00,105.0,60.9,29.21,ESE,122,2.8,4.3,24,0.00,,,0.00,WSDL version 426,2013-06-13 23:03:00,
2013-06-13 18:08:00,104.9,60.9,29.21,ESE,113,3.2,4.3,24,0.00,,,0.00,WSDL version 426,2013-06-13 23:08:00,
2013-06-13 18:13:00,104.7,60.7,29.21,East,96,3.1,4.9,24,0.00,,,0.00,WSDL version 426,2013-06-13 23:13:00,
2013-06-13 18:18:00,104.5,60.5,29.21,ESE,119,3.0,5.4,24,0.00,,,0.00,WSDL version 426,2013-06-13 23:18:00,
2013-06-13 18:23:00,104.5,60.5,29.21,SE,125,3.9,5.4,24,0.00,,,0.00,WSDL version 426,2013-06-13 23:23:00,
2013-06-13 18:28:00,104.6,60.6,29.21,ESE,107,3.6,6.0,24,0.00,,,0.00,WSDL version 426,2013-06-13 23:28:00,
2013-06-13 18:33:00,104.3,60.3,29.21,ESE,120,3.5,6.5,24,0.00,,,0.00,WSDL version 426,2013-06-13 23:33:00,
2013-06-13 18:38:00,104.4,60.4,29.21,ESE,116,2.6,6.5,24,0.00,,,0.00,WSDL version 426,2013-06-13 23:38:00,
2013-06-13 18:43:00,104.7,60.6,29.21,NE,55,2.0,4.0,24,0.00,,,0.00,WSDL version 426,2013-06-13 23:43:00,
2013-06-13 18:48:00,105.0,60.3,29.21,ESE,118,3.9,4.7,24,0.00,,,0.00,WSDL version 426,2013-06-13 23:48:00,
2013-06-13 18:53:00,104.3,60.3,29.21,ESE,105,3.7,5.4,24,0.00,,,0.00,WSDL version 426,2013-06-13 23:53:00,
2013-06-13 18:58:00,103.7,60.3,29.21,ESE,108,3.9,5.4,25,0.00,,,0.00,WSDL version 426,2013-06-13 23:58:00,
2013-06-13 19:03:00,102.9,60.3,29.21,East,96,4.1,6.3,25,0.00,,,0.00,WSDL version 426,2013-06-14 00:03:00,
2013-06-13 19:08:00,102.7,60.1,29.21,ESE,118,3.8,6.3,25,0.00,,,0.00,WSDL version 426,2013-06-14 00:08:00,
2013-06-13 19:13:00,102.1,59.8,29.21,East,90,3.7,5.8,26,0.00,,,0.00,WSDL version 426,2013-06-14 00:13:00,
2013-06-13 19:18:00,101.8,60.5,29.21,ESE,118,3.9,5.8,26,0.00,,,0.00,WSDL version 426,2013-06-14 00:18:00,
2013-06-13 19:23:00,101.5,60.2,29.21,ESE,118,2.7,6.3,26,0.00,,,0.00,WSDL version 426,2013-06-14 00:23:00,
2013-06-13 19:28:00,101.3,60.1,29.21,ENE,68,5.1,7.4,26,0.00,,,0.00,WSDL version 426,2013-06-14 00:28:00,
2013-06-13 19:33:00,100.8,59.7,29.21,ENE,75,4.9,7.8,26,0.00,,,0.00,WSDL version 426,2013-06-14 00:33:00,
2013-06-13 19:38:00,100.3,60.1,29.21,East,96,5.5,9.4,27,0.00,,,0.00,WSDL version 426,2013-06-14 00:38:00,
2013-06-13 19:43:00,100.0,60.0,29.21,ENE,63,4.1,9.4,27,0.00,,,0.00,WSDL version 426,2013-06-14 00:43:00,
2013-06-13 19:48:00,99.7,59.8,29.21,ENE,64,3.9,6.3,27,0.00,,,0.00,WSDL version 426,2013-06-14 00:48:00,
2013-06-13 19:53:00,99.3,59.5,29.21,ENE,68,4.3,6.3,27,0.00,,,0.00,WSDL version 426,2013-06-14 00:53:00,
2013-06-13 19:58:00,98.6,59.5,29.21,NE,48,4.4,6.5,28,0.00,,,0.00,WSDL version 426,2013-06-14 00:58:00,
2013-06-13 20:03:00,97.7,59.3,29.21,NE,53,3.9,6.5,29,0.00,,,0.00,WSDL version 426,2013-06-14 01:03:00,
2013-06-13 20:08:00,96.8,59.4,29.21,NE,53,4.8,7.2,29,0.00,,,0.00,WSDL version 426,2013-06-14 01:08:00,
2013-06-13 20:13:00,95.8,59.1,29.21,ENE,68,5.8,8.9,30,0.00,,,0.00,WSDL version 426,2013-06-14 01:13:00,
2013-06-13 20:18:00,94.6,59.8,29.21,NE,55,4.5,8.9,32,0.00,,,0.00,WSDL version 426,2013-06-14 01:18:00,
2013-06-13 20:23:00,93.5,59.8,29.21,NE,51,3.7,7.4,33,0.00,,,0.00,WSDL version 426,2013-06-14 01:23:00,
2013-06-13 20:28:00,92.7,60.8,29.21,NE,48,3.9,6.0,35,0.00,,,0.00,WSDL version 426,2013-06-14 01:28:00,
2013-06-13 20:33:00,91.9,61.3,29.21,ENE,62,6.2,8.7,37,0.00,,,0.00,WSDL version 426,2013-06-14 01:33:00,
2013-06-13 20:38:00,91.3,61.9,29.21,ENE,58,3.5,8.7,38,0.00,,,0.00,WSDL version 426,2013-06-14 01:38:00,
2013-06-13 20:43:00,90.7,61.6,29.21,ENE,60,4.0,6.0,38,0.00,,,0.00,WSDL version 426,2013-06-14 01:43:00,
2013-06-13 20:48:00,90.3,61.7,29.21,ENE,63,4.5,6.3,39,0.00,,,0.00,WSDL version 426,2013-06-14 01:48:00,
2013-06-13 20:53:00,89.8,61.6,29.21,ENE,65,4.4,6.5,39,0.00,,,0.00,WSDL version 426,2013-06-14 01:53:00,
2013-06-13 20:58:00,89.3,61.8,29.21,NE,56,5.5,7.8,40,0.00,,,0.00,WSDL version 426,2013-06-14 01:58:00,
2013-06-13 21:03:00,88.9,62.1,29.21,NE,55,4.3,7.8,41,0.00,,,0.00,WSDL version 426,2013-06-14 02:03:00,
2013-06-13 21:08:00,88.6,61.9,29.21,ENE,60,4.5,7.2,41,0.00,,,0.00,WSDL version 426,2013-06-14 02:08:00,
2013-06-13 21:13:00,88.2,61.5,29.21,ENE,62,4.3,6.0,41,0.00,,,0.00,WSDL version 426,2013-06-14 02:13:00,
2013-06-13 21:18:00,87.9,61.3,29.21,ENE,70,4.2,6.0,41,0.00,,,0.00,WSDL version 426,2013-06-14 02:18:00,
2013-06-13 21:23:00,87.5,61.3,29.21,ENE,62,3.7,6.3,42,0.00,,,0.00,WSDL version 426,2013-06-14 02:23:00,
2013-06-13 21:28:00,87.2,61.3,29.21,ENE,58,3.1,6.3,42,0.00,,,0.00,WSDL version 426,2013-06-14 02:28:00,
2013-06-13 21:33:00,86.9,61.1,29.21,ENE,62,3.3,4.3,42,0.00,,,0.00,WSDL version 426,2013-06-14 02:33:00,
2013-06-13 21:38:00,86.6,60.6,29.21,ENE,58,4.8,7.4,41,0.00,,,0.00,WSDL version 426,2013-06-14 02:38:00,
2013-06-13 21:43:00,86.4,59.9,29.21,NE,55,4.1,7.6,41,0.00,,,0.00,WSDL version 426,2013-06-14 02:43:00,
2013-06-13 21:48:00,86.0,59.2,29.21,ENE,59,4.8,7.6,40,0.00,,,0.00,WSDL version 426,2013-06-14 02:48:00,
2013-06-13 21:53:00,85.8,59.3,29.21,ENE,68,5.0,7.6,41,0.00,,,0.00,WSDL version 426,2013-06-14 02:53:00,
2013-06-13 21:58:00,85.6,59.3,29.21,ENE,62,3.2,7.6,41,0.00,,,0.00,WSDL version 426,2013-06-14 02:58:00,
2013-06-13 22:03:00,85.5,59.1,29.21,NE,55,3.6,6.3,41,0.00,,,0.00,WSDL version 426,2013-06-14 03:03:00,
2013-06-13 22:08:00,85.4,59.0,29.21,ENE,68,3.3,6.0,41,0.00,,,0.00,WSDL version 426,2013-06-14 03:08:00,
2013-06-13 22:13:00,85.2,58.9,29.21,ENE,68,3.5,5.8,41,0.00,,,0.00,WSDL version 426,2013-06-14 03:13:00,
2013-06-13 22:18:00,85.0,58.7,29.21,ENE,73,2.9,4.9,41,0.00,,,0.00,WSDL version 426,2013-06-14 03:18:00,
2013-06-13 22:23:00,84.8,58.9,29.21,ENE,75,2.1,4.7,42,0.00,,,0.00,WSDL version 426,2013-06-14 03:23:00,
2013-06-13 22:28:00,84.6,59.0,29.21,ENE,60,1.6,4.0,42,0.00,,,0.00,WSDL version 426,2013-06-14 03:28:00,
2013-06-13 22:33:00,84.5,58.9,29.21,ENE,58,1.2,3.4,42,0.00,,,0.00,WSDL version 426,2013-06-14 03:33:00,
2013-06-13 22:38:00,84.2,59.4,29.21,ESE,110,0.9,3.4,44,0.00,,,0.00,WSDL version 426,2013-06-14 03:38:00,
2013-06-13 22:43:00,83.8,59.7,29.21,ESE,115,0.6,1.6,45,0.00,,,0.00,WSDL version 426,2013-06-14 03:43:00,
2013-06-13 22:48:00,83.2,60.1,29.21,ESE,123,0.4,1.6,46,0.00,,,0.00,WSDL version 426,2013-06-14 03:48:00,
2013-06-13 22:53:00,82.7,60.1,29.21,ESE,110,1.2,2.0,46,0.00,,,0.00,WSDL version 426,2013-06-14 03:53:00,
2013-06-13 22:58:00,82.0,59.6,29.21,ESE,103,1.6,2.9,47,0.00,,,0.00,WSDL version 426,2013-06-14 03:58:00,
2013-06-13 23:01:00,81.6,59.5,29.21,ESE,121,0.1,2.9,48,0.00,,,0.00,WSDL version 426,2013-06-14 04:01:00,
2013-06-13 23:03:00,81.4,59.9,29.21,ESE,113,0.9,2.9,49,0.00,,,0.00,WSDL version 426,2013-06-14 04:03:00,
2013-06-13 23:04:00,81.4,60.2,29.21,ESE,123,0.9,2.9,50,0.00,,,0.00,WSDL version 426,2013-06-14 04:04:00,
2013-06-13 23:07:00,81.5,61.0,29.21,SE,141,0.0,2.2,50,0.00,,,0.00,WSDL version 426,2013-06-14 04:07:00,
2013-06-13 23:12:00,81.4,61.0,29.21,SE,135,0.0,1.3,50,0.00,,,0.00,WSDL version 426,2013-06-14 04:12:00,
2013-06-13 23:17:00,81.0,60.9,29.21,SE,135,0.0,0.0,50,0.00,,,0.00,WSDL version 426,2013-06-14 04:17:00,
2013-06-13 23:23:00,79.7,59.7,29.21,SE,135,0.0,0.0,51,0.00,,,0.00,WSDL version 426,2013-06-14 04:23:00,
2013-06-13 23:28:00,78.8,60.1,29.21,SE,138,0.0,0.0,54,0.00,,,0.00,WSDL version 426,2013-06-14 04:28:00,
2013-06-13 23:33:00,78.6,62.4,29.21,SSE,164,0.0,1.1,59,0.00,,,0.00,WSDL version 426,2013-06-14 04:33:00,
2013-06-13 23:38:00,79.2,63.0,29.21,ESE,113,0.0,1.1,57,0.00,,,0.00,WSDL version 426,2013-06-14 04:38:00,
2013-06-13 23:43:00,79.1,61.9,29.21,ESE,113,0.0,0.0,56,0.00,,,0.00,WSDL version 426,2013-06-14 04:43:00,
2013-06-13 23:49:00,78.4,61.4,29.21,ESE,113,0.0,0.0,56,0.00,,,0.00,WSDL version 426,2013-06-14 04:49:00,
2013-06-13 23:54:00,78.4,62.9,29.21,South,180,0.0,0.0,59,0.00,,,0.00,WSDL version 426,2013-06-14 04:54:00,
2013-06-13 23:59:00,78.8,62.7,29.21,SSE,167,0.0,0.0,57,0.00,,,0.00,WSDL version 426,2013-06-14 04:59:00,